Details From NWWW - Noumea La Tontouta
To NFTF - Fua Amotu Intl
Flight Number -
Tags Decoded
Created
Modified
Stats Distance 1,069 nm / 1,979 km
Max Altitude 0 ft / 0 m
Waypoints 4
Social Downloads 4
Likes 0
Share VATSIM

Download

Looking for another format? Having issues loading an existing format? Contact us
Advertisement - Login to hide

Notes

Decoded

Route

NWWW LTO BUSTA NFTF

ID Type Via Altitude Latitude Longitude Leg Dist Tot Dist Heading (true) Name
O NWWW APT - 0 ft / 0 m -22.00756˚ 166.20102˚ - 0 nm - -
LTO VOR - 0 ft / 0 m -22.00511˚ 166.21178˚ 0 nm 0 nm 76° / 76° LA TONTOUTA VOR-DME
BUSTA FIX - 0 ft / 0 m -21.55167˚ -175.00000˚ 1047 nm 1048 nm 92° / 85° -
O NFTF APT - 0 ft / 0 m -21.23770˚ -175.13873˚ 20 nm 1068 nm 338° / 338° Fua Amotu Intl

Altitude Profile

Advertisement - Login to hide

Weather


0- 5 10 15 20 25 30 35+ Temperature / ° C

Clouds and Precipitation
Forecast for 2018-05-26 18:00 UTC. Updated 3 hours ago

Ground ~20,000 ft ~40,000 ft Winds

NWWW

Details ICAO NWWW (NOU)
Name Noumea La Tontouta
Region New Caledonia
Timezone Pacific/Noumea (UTC+11.0)
Stats Elevation 51 ft / 16 m (AMSL)
Location -22.014529° 166.213022°
Runways 1
Magnetic Variation 12.348° E

METAR

NWWW 262000Z AUTO 15008KT 9999 -RA FEW056/// BKN072/// OVC084/// ///TCU 19/17 Q1017 TEMPO 13015G25KT 2500 SHRA BKN009 FEW020CB

Decode

TAF

TAF NWWW 261700Z 2618/2718 10008KT 9999 FEW032 SCT050 BKN065 TEMPO 2618/2706 13015G25KT 4000 SHRA FEW020TCU PROB40 TEMPO 2618/2703 2500 SHRA BKN009 FEW020CB PROB30 TEMPO 2715/2718 4000 SHRA FEW020TCU

Decode

Departure Runways

ID Width Length Bearing (true) Bearing (mag) Surface Threshold Offset Overrun Length
11 148 ft / 45 m 10,666 ft / 3,251 m 121.21° 108.86° Asphalt 0 ft / 0 m 338 ft / 103 m
29 148 ft / 45 m 10,666 ft / 3,251 m 301.19° 288.84° Asphalt 0 ft / 0 m 354 ft / 108 m

NFTF

Details ICAO NFTF (TBU)
Name Fua Amotu Intl
Region Fiji and Tonga
Timezone Pacific/Tongatapu (UTC+13.0)
Stats Elevation 126 ft / 38 m (AMSL)
Location -21.242493° -175.144569°
Runways 2
Magnetic Variation 13.685° E

METAR

NFTF 262000Z 14008KT 9999 FEW016 BKN040 OVC110 24/20 Q1017

Decode

TAF

TAF NFTF 261724Z 2618/2718 16011KT 9999 FEW017 SCT045 BKN100 PROB30 2712/2718 TEMPO 5000 SHRA BKN015

Decode

Destination Runways

ID Width Length Bearing (true) Bearing (mag) Surface Threshold Offset Overrun Length
11 148 ft / 45 m 8,967 ft / 2,733 m 122.10° 108.42° Asphalt 0 ft / 0 m 194 ft / 59 m
17 194 ft / 59 m 4,960 ft / 1,512 m 182.40° 168.72° Unknown 0 ft / 0 m 0 ft / 0 m
29 148 ft / 45 m 8,967 ft / 2,733 m 302.09° 288.41° Asphalt 0 ft / 0 m 194 ft / 59 m
35 194 ft / 59 m 4,960 ft / 1,512 m 2.40° 348.72° Unknown 0 ft / 0 m 0 ft / 0 m